Time;durP1;ratioP1;P1;durP2;ratioP2;P2;SDS_P1;SDS_P2;PMS_P1;PMS_P2;Temp;Humidity;BMP_temperature;BMP_pressure;BME280_temperature;BME280_humidity;BME280_pressure;Samples;Min_cycle;Max_cycle;Signal;HPM_P1;HPM_P2
2023/10/12 00:00:24;;;;;;;3.47;0.93;;;;;;;13.68;99.34;101156.19;7396222;19;20365;-70
2023/10/12 00:02:57;;;;;;;3.88;0.90;;;;;;;13.68;100.00;101164.31;7398684;19;19931;-70
2023/10/12 00:05:27;;;;;;;8.07;0.88;;;;;;;13.69;99.50;101157.84;7399852;19;19922;-70
2023/10/12 00:07:57;;;;;;;7.25;1.35;;;;;;;13.69;100.00;101155.16;7398838;19;19953;-70
2023/10/12 00:10:26;;;;;;;9.02;1.85;;;;;;;13.67;100.00;101162.63;7399327;19;19929;-70
2023/10/12 00:13:05;;;;;;;6.95;1.63;;;;;;;13.65;100.00;101173.66;7399196;19;19925;-70
2023/10/12 00:15:38;;;;;;;4.53;1.13;;;;;;;13.61;99.88;101173.19;7389092;19;19960;-70
2023/10/12 00:18:14;;;;;;;4.05;0.80;;;;;;;13.60;100.00;101162.53;7396447;19;19919;-70
2023/10/12 00:20:44;;;;;;;3.22;0.85;;;;;;;13.58;100.00;101165.47;7399727;19;20493;-70
2023/10/12 00:23:13;;;;;;;8.63;1.10;;;;;;;13.57;100.00;101171.03;7398350;19;19927;-70
2023/10/12 00:25:45;;;;;;;5.20;1.00;;;;;;;13.56;100.00;101169.38;7399014;19;19970;-70
2023/10/12 00:28:17;;;;;;;5.38;1.10;;;;;;;13.53;100.00;101176.00;7396253;19;19934;-70
2023/10/12 00:30:46;;;;;;;8.77;1.00;;;;;;;13.49;100.00;101163.03;7394925;19;19964;-70
2023/10/12 00:33:18;;;;;;;5.45;0.98;;;;;;;13.47;100.00;101165.91;7394949;19;19926;-70
2023/10/12 00:35:51;;;;;;;;;;;;;;;13.32;100.00;101170.53;7387760;19;19946;-70
2023/10/12 00:38:23;;;;;;;7.78;1.35;;;;;;;13.45;100.00;101168.00;7398557;19;19935;-70
2023/10/12 00:40:55;;;;;;;7.85;1.00;;;;;;;13.45;100.00;101169.84;7399168;19;19923;-70
2023/10/12 00:43:28;;;;;;;8.75;1.20;;;;;;;13.45;100.00;101164.44;7396030;19;19929;-70
2023/10/12 00:45:56;;;;;;;4.38;0.80;;;;;;;13.44;100.00;101163.59;7400300;19;19930;-69
2023/10/12 00:48:30;;;;;;;3.53;0.95;;;;;;;13.45;100.00;101154.47;7396910;19;19927;-70
2023/10/12 00:50:59;;;;;;;7.15;0.98;;;;;;;13.45;100.00;101165.28;7396970;19;19948;-70
2023/10/12 00:53:31;;;;;;;3.40;0.90;;;;;;;13.48;100.00;101161.34;7396876;19;19926;-70
2023/10/12 00:56:01;;;;;;;6.70;1.05;;;;;;;13.47;100.00;101168.63;7397947;19;20348;-71
2023/10/12 00:58:31;;;;;;;10.10;1.15;;;;;;;13.45;100.00;101170.69;7397307;19;19943;-70
2023/10/12 01:01:02;;;;;;;5.15;2.25;;;;;;;13.43;100.00;101170.03;7397921;19;19948;-70
2023/10/12 01:03:35;;;;;;;7.20;1.25;;;;;;;13.42;100.00;101162.09;7397552;19;19965;-71
2023/10/12 01:08:47;;;;;;;7.20;1.20;;;;;;;13.37;99.66;101157.28;7399015;19;19921;-70
2023/10/12 01:11:18;;;;;;;8.05;1.25;;;;;;;13.38;100.00;101167.03;7395931;19;19948;-70
2023/10/12 01:13:49;;;;;;;5.32;1.00;;;;;;;13.39;99.50;101176.84;7394709;19;19922;-70
2023/10/12 01:16:24;;;;;;;7.70;1.20;;;;;;;13.39;99.64;101176.84;7388019;19;19922;-70
2023/10/12 01:19:05;;;;;;;7.10;1.30;;;;;;;13.42;99.76;101165.63;7394126;19;19922;-69
2023/10/12 01:21:36;;;;;;;9.25;1.13;;;;;;;13.40;99.45;101167.72;7398537;19;19922;-69
2023/10/12 01:24:11;;;;;;;10.00;1.20;;;;;;;13.40;99.79;101172.28;7396136;19;19943;-69
2023/10/12 01:26:40;;;;;;;6.07;1.20;;;;;;;13.41;99.45;101176.69;7395961;19;19934;-69
2023/10/12 01:29:17;;;;;;;7.45;0.90;;;;;;;13.40;99.57;101177.69;7394399;19;19962;-69
2023/10/12 01:31:49;;;;;;;10.98;1.40;;;;;;;13.41;100.00;101177.53;7395738;19;19922;-69
2023/10/12 01:34:17;;;;;;;8.18;1.50;;;;;;;13.42;99.67;101171.06;7398742;19;19998;-69
2023/10/12 01:36:46;;;;;;;4.35;1.23;;;;;;;13.45;99.78;101181.53;7392901;19;19926;-69
2023/10/12 01:39:18;;;;;;;7.72;1.75;;;;;;;13.45;99.65;101176.09;7397405;19;20358;-69
2023/10/12 01:41:48;;;;;;;4.45;0.85;;;;;;;13.44;99.93;101171.72;7397778;19;19922;-69
2023/10/12 01:44:18;;;;;;;8.07;1.30;;;;;;;13.44;99.32;101184.41;7387057;19;19914;-70
2023/10/12 01:46:49;;;;;;;8.98;1.25;;;;;;;13.42;100.00;101181.88;7395252;19;19922;-70
2023/10/12 01:49:19;;;;;;;5.72;1.30;;;;;;;13.41;100.00;101185.63;7394238;19;20600;-70
2023/10/12 01:51:48;;;;;;;5.00;1.13;;;;;;;13.39;100.00;101184.13;7392531;19;20349;-70
2023/10/12 01:54:24;;;;;;;5.72;0.93;;;;;;;13.38;100.00;101190.56;7396255;19;19930;-70
2023/10/12 01:56:55;;;;;;;9.20;1.10;;;;;;;13.34;99.56;101191.97;7390711;19;19918;-69
2023/10/12 01:59:25;;;;;;;7.85;1.38;;;;;;;13.30;100.00;101196.91;7391129;19;19925;-69
2023/10/12 02:02:06;;;;;;;6.05;1.13;;;;;;;13.29;100.00;101197.94;7397399;19;19922;-70
2023/10/12 02:04:39;;;;;;;8.60;1.42;;;;;;;13.26;99.55;101194.75;7398540;19;19927;-69
2023/10/12 02:07:10;;;;;;;7.38;1.25;;;;;;;13.27;99.91;101199.16;7396384;19;19979;-69
2023/10/12 02:09:42;;;;;;;8.85;1.27;;;;;;;13.26;100.00;101202.88;7395135;19;19919;-69
2023/10/12 02:12:13;;;;;;;7.60;1.33;;;;;;;13.23;100.00;101206.81;7395437;19;20345;-70
2023/10/12 02:14:41;;;;;;;6.55;1.13;;;;;;;13.20;100.00;101203.66;7394987;19;20472;-69
2023/10/12 02:17:11;;;;;;;2.95;0.88;;;;;;;13.17;100.00;101204.84;7388988;19;19922;-69
2023/10/12 02:19:41;;;;;;;5.85;1.02;;;;;;;13.14;100.00;101211.47;7393166;19;19948;-70
2023/10/12 02:22:24;;;;;;;7.80;1.25;;;;;;;13.13;100.00;101211.66;7393130;19;19926;-69
2023/10/12 02:25:18;;;;;;;4.78;1.13;;;;;;;13.11;100.00;101221.81;7390708;19;19923;-69
2023/10/12 02:27:54;;;;;;;8.30;1.33;;;;;;;13.09;100.00;101219.25;7394472;19;20021;-70
2023/10/12 02:30:27;;;;;;;7.50;1.90;;;;;;;13.09;100.00;101218.41;7392428;19;19926;-70
2023/10/12 02:33:00;;;;;;;5.68;1.65;;;;;;;13.07;100.00;101221.31;7392112;19;19926;-69
2023/10/12 02:35:36;;;;;;;7.25;1.40;;;;;;;13.08;100.00;101220.28;7393970;19;19923;-69
2023/10/12 02:38:07;;;;;;;9.05;1.65;;;;;;;13.05;100.00;101226.06;7393576;19;20370;-69
2023/10/12 02:40:41;;;;;;;7.45;1.35;;;;;;;13.03;100.00;101228.09;7393494;19;19926;-69
2023/10/12 02:43:11;;;;;;;13.27;1.30;;;;;;;13.01;100.00;101222.06;7393248;19;19982;-69
2023/10/12 02:45:42;;;;;;;7.00;1.25;;;;;;;13.00;100.00;101228.47;7395590;19;19931;-69
2023/10/12 02:48:17;;;;;;;6.55;1.17;;;;;;;12.99;100.00;101225.94;7393968;19;20290;-70
2023/10/12 02:50:57;;;;;;;7.40;1.00;;;;;;;12.97;100.00;101226.16;7391143;19;20329;-70
2023/10/12 02:53:29;;;;;;;4.82;1.48;;;;;;;12.96;100.00;101226.31;7394427;19;19982;-69
2023/10/12 02:56:01;;;;;;;8.57;1.25;;;;;;;12.95;100.00;101240.88;7392165;19;20253;-69
2023/10/12 02:58:32;;;;;;;7.97;1.30;;;;;;;12.94;100.00;101229.22;7385766;19;19918;-70
2023/10/12 03:01:12;;;;;;;6.07;1.20;;;;;;;12.94;100.00;101231.94;7391036;19;19949;-69
2023/10/12 03:03:47;;;;;;;7.70;1.45;;;;;;;12.92;100.00;101243.94;7393294;19;19919;-69
2023/10/12 03:06:21;;;;;;;8.30;1.77;;;;;;;12.92;100.00;101241.25;7395037;19;19918;-69
2023/10/12 03:09:14;;;;;;;6.72;1.73;;;;;;;12.91;100.00;101243.09;7393770;19;19926;-69
2023/10/12 03:11:46;;;;;;;5.45;1.30;;;;;;;12.88;100.00;101248.03;7388464;19;19914;-69
2023/10/12 03:14:16;;;;;;;7.70;1.27;;;;;;;12.87;100.00;101243.66;7393288;19;19921;-69
2023/10/12 03:16:47;;;;;;;7.18;1.75;;;;;;;12.84;100.00;101246.72;7383069;19;19926;-69
2023/10/12 03:19:23;;;;;;;5.75;0.98;;;;;;;12.81;100.00;101241.69;7390751;19;19914;-69
2023/10/12 03:22:03;;;;;;;5.93;1.25;;;;;;;12.81;100.00;101249.81;7393521;19;19918;-69
2023/10/12 03:24:43;;;;;;;8.73;1.42;;;;;;;12.78;100.00;101247.44;7390502;19;19945;-69
2023/10/12 03:27:17;;;;;;;8.65;1.48;;;;;;;12.77;100.00;101246.59;7395037;19;19933;-69
2023/10/12 03:29:51;;;;;;;8.60;1.67;;;;;;;12.76;100.00;101244.09;7393348;19;20366;-69
2023/10/12 03:32:23;;;;;;;8.55;1.30;;;;;;;12.75;100.00;101243.25;7392170;19;19932;-70
2023/10/12 03:35:00;;;;;;;5.20;1.23;;;;;;;12.74;100.00;101247.81;7389842;19;19929;-69
2023/10/12 03:42:55;;;;;;;8.90;1.15;;;;;;;12.67;100.00;101260.38;7399572;19;19965;-71
2023/10/12 03:45:24;;;;;;;;;;;;;;;12.49;100.00;101259.84;7402163;19;20401;-71
2023/10/12 03:48:03;;;;;;;3.80;1.25;;;;;;;12.61;100.00;101266.50;7400768;19;19924;-70
2023/10/12 03:50:36;;;;;;;6.25;1.42;;;;;;;12.60;100.00;101272.91;7401028;19;20261;-69
2023/10/12 03:53:06;;;;;;;6.57;1.00;;;;;;;12.61;100.00;101274.63;7399135;19;19944;-69
2023/10/12 03:55:42;;;;;;;6.07;1.08;;;;;;;12.62;100.00;101270.06;7399959;19;20418;-70
2023/10/12 03:58:15;;;;;;;6.25;1.40;;;;;;;12.61;100.00;101276.47;7401744;19;19998;-69
2023/10/12 04:00:48;;;;;;;7.53;1.30;;;;;;;12.61;100.00;101282.72;7394128;19;19922;-69
2023/10/12 04:03:18;;;;;;;5.60;1.52;;;;;;;12.63;100.00;101285.25;7397053;19;19923;-69
2023/10/12 04:05:47;;;;;;;4.95;1.50;;;;;;;12.64;100.00;101281.53;7394814;19;19926;-69
2023/10/12 04:16:45;;;;;;;7.15;3.05;;;;;;;12.53;100.00;101299.00;7393238;19;19934;-69
2023/10/12 04:19:15;;;;;;;9.45;1.63;;;;;;;12.52;100.00;101296.47;7397219;19;20399;-69
2023/10/12 04:21:57;;;;;;;9.77;1.35;;;;;;;12.52;100.00;101301.88;7398958;19;19931;-69
2023/10/12 04:24:42;;;;;;;5.18;1.10;;;;;;;12.49;100.00;101305.78;7396976;19;19931;-69
2023/10/12 04:27:24;;;;;;;8.45;1.13;;;;;;;12.47;100.00;101299.69;7396938;19;19922;-69
2023/10/12 04:30:04;;;;;;;6.90;1.80;;;;;;;12.45;100.00;101296.34;7388721;19;19910;-69
2023/10/12 04:32:38;;;;;;;7.05;1.00;;;;;;;12.44;100.00;101300.06;7385035;19;19922;-69
2023/10/12 04:35:18;;;;;;;4.80;0.90;;;;;;;12.43;100.00;101297.53;7397359;19;19922;-69
2023/10/12 04:37:47;;;;;;;6.10;1.20;;;;;;;12.40;100.00;101312.25;7400126;19;19934;-69
2023/10/12 04:40:36;;;;;;;8.18;1.77;;;;;;;12.40;100.00;101303.31;7397757;19;19951;-69
2023/10/12 04:43:06;;;;;;;6.88;1.50;;;;;;;12.38;100.00;101311.59;7398297;19;19926;-69
2023/10/12 04:48:22;;;;;;;7.75;1.25;;;;;;;12.33;100.00;101324.81;7389713;19;19923;-69
2023/10/12 04:50:59;;;;;;;7.13;1.10;;;;;;;12.34;100.00;101322.94;7395990;19;19922;-68
2023/10/12 04:53:35;;;;;;;6.75;1.02;;;;;;;12.34;100.00;101323.75;7390079;19;20021;-70
2023/10/12 04:56:10;;;;;;;6.72;1.00;;;;;;;12.35;100.00;101333.56;7395581;19;20561;-69
2023/10/12 04:58:56;;;;;;;4.43;0.93;;;;;;;12.34;100.00;101345.38;7397298;19;19947;-69
2023/10/12 05:01:40;;;;;;;6.13;1.38;;;;;;;12.32;100.00;101347.44;7390255;19;19922;-69
2023/10/12 05:04:19;;;;;;;8.90;1.50;;;;;;;12.28;100.00;101357.75;7398311;19;19926;-70
2023/10/12 05:06:48;;;;;;;3.70;1.40;;;;;;;12.27;100.00;101357.91;7394908;19;19948;-69
2023/10/12 05:09:18;;;;;;;5.05;1.50;;;;;;;12.24;100.00;101361.81;7397901;19;19951;-69
2023/10/12 05:11:46;;;;;;;3.75;1.30;;;;;;;12.24;100.00;101366.38;7395825;19;19918;-69
2023/10/12 05:14:16;;;;;;;9.85;1.48;;;;;;;12.24;100.00;101369.09;7397321;19;19926;-69
2023/10/12 05:16:47;;;;;;;7.75;1.20;;;;;;;12.22;100.00;101371.94;7394867;19;19922;-68
2023/10/12 05:19:16;;;;;;;14.95;1.35;;;;;;;12.22;100.00;101365.69;7390340;19;19928;-70
2023/10/12 05:21:46;;;;;;;8.30;1.25;;;;;;;12.22;100.00;101368.41;7397674;19;20300;-69
2023/10/12 05:24:14;;;;;;;7.43;1.48;;;;;;;12.22;100.00;101360.28;7397115;19;19918;-69
2023/10/12 05:26:51;;;;;;;5.90;1.45;;;;;;;12.21;100.00;101364.84;7397015;19;19957;-69
2023/10/12 05:29:34;;;;;;;8.80;1.73;;;;;;;12.20;100.00;101365.91;7394226;19;19923;-69
2023/10/12 05:32:18;;;;;;;4.90;1.40;;;;;;;12.15;100.00;101362.88;7395089;19;19923;-69
2023/10/12 05:34:52;;;;;;;6.75;1.52;;;;;;;12.13;100.00;101377.56;7398303;19;19940;-69
2023/10/12 05:37:24;;;;;;;4.72;1.42;;;;;;;12.09;100.00;101376.22;7396284;19;19954;-69
2023/10/12 05:39:55;;;;;;;9.20;1.20;;;;;;;12.07;100.00;101383.66;7396600;19;20353;-69
2023/10/12 05:42:25;;;;;;;7.18;2.00;;;;;;;12.05;100.00;101383.00;7396273;19;19982;-69
2023/10/12 05:45:13;;;;;;;5.30;1.40;;;;;;;12.01;100.00;101378.94;7398569;19;19922;-69
2023/10/12 05:47:45;;;;;;;9.95;1.58;;;;;;;11.96;100.00;101389.44;7395937;19;19922;-69
2023/10/12 05:50:15;;;;;;;7.55;1.60;;;;;;;11.93;100.00;101392.47;7389865;19;19929;-69
2023/10/12 05:52:45;;;;;;;7.38;1.50;;;;;;;11.90;100.00;101390.97;7397176;19;19923;-69
2023/10/12 05:55:20;;;;;;;7.15;2.22;;;;;;;11.86;100.00;101394.19;7396355;19;22782;-69
2023/10/12 05:57:48;;;;;;;6.45;1.40;;;;;;;11.83;100.00;101400.75;7394826;19;19926;-69
2023/10/12 06:00:34;;;;;;;5.72;1.20;;;;;;;11.82;100.00;101396.41;7387113;19;19954;-70
2023/10/12 06:03:10;;;;;;;7.88;1.60;;;;;;;11.79;100.00;101402.97;7395986;19;19923;-69
2023/10/12 06:05:39;;;;;;;4.75;1.10;;;;;;;11.78;100.00;101393.19;7391543;19;19964;-69
2023/10/12 06:08:10;;;;;;;5.15;1.63;;;;;;;11.73;100.00;101387.47;7389989;19;20565;-69
2023/10/12 06:10:41;;;;;;;7.72;1.17;;;;;;;11.74;100.00;101397.25;7392522;19;19926;-68
2023/10/12 06:13:12;;;;;;;6.40;1.10;;;;;;;11.71;100.00;101394.88;7393408;19;19929;-68
2023/10/12 06:15:43;;;;;;;9.82;1.48;;;;;;;11.70;100.00;101386.94;7394694;19;20365;-69
2023/10/12 06:18:21;;;;;;;6.15;1.10;;;;;;;11.69;100.00;101386.09;7394869;19;20349;-68
2023/10/12 06:20:58;;;;;;;5.00;1.30;;;;;;;11.69;100.00;101391.47;7394722;19;19938;-68
2023/10/12 06:23:28;;;;;;;6.28;1.20;;;;;;;11.67;100.00;101387.28;7396438;19;19944;-69
2023/10/12 06:25:57;;;;;;;7.35;1.40;;;;;;;11.68;100.00;101380.88;7391613;19;19934;-69
2023/10/12 06:28:27;;;;;;;6.75;1.35;;;;;;;11.67;100.00;101387.28;7392783;19;19988;-69
2023/10/12 06:30:56;;;;;;;10.02;1.80;;;;;;;11.66;100.00;101386.44;7390955;19;19918;-69
2023/10/12 06:33:30;;;;;;;3.97;1.20;;;;;;;11.65;100.00;101386.63;7395081;19;20346;-68
2023/10/12 06:36:01;;;;;;;6.18;1.20;;;;;;;11.66;100.00;101386.44;7393454;19;20255;-68
2023/10/12 06:38:38;;;;;;;6.28;1.50;;;;;;;11.67;100.00;101390.81;7397406;19;20393;-69
2023/10/12 06:46:43;;;;;;;6.30;1.42;;;;;;;11.67;100.00;101393.53;7390914;19;19953;-69
2023/10/12 06:49:17;;;;;;;4.47;1.23;;;;;;;11.66;100.00;101390.97;7393771;19;20401;-68
2023/10/12 06:51:53;;;;;;;3.28;1.38;;;;;;;11.67;100.00;101398.06;7395332;19;19956;-68
2023/10/12 06:54:31;;;;;;;4.57;1.30;;;;;;;11.66;100.00;101402.63;7393957;19;20321;-69
2023/10/12 06:57:29;;;;;;;15.88;1.80;;;;;;;11.67;100.00;101409.72;7396805;19;19962;-69
2023/10/12 07:00:15;;;;;;;5.63;1.83;;;;;;;11.71;100.00;101413.75;7387899;19;19922;-68
2023/10/12 07:02:45;;;;;;;10.55;1.52;;;;;;;11.72;100.00;101414.63;7391987;19;19922;-69
2023/10/12 07:05:20;;;;;;;6.22;1.80;;;;;;;11.77;100.00;101420.38;7395386;19;19918;-69
2023/10/12 07:07:51;;;;;;;6.88;1.73;;;;;;;11.79;100.00;101421.88;7394932;19;19933;-69
2023/10/12 07:10:27;;;;;;;4.22;1.45;;;;;;;11.80;100.00;101430.81;7395515;19;19978;-69
2023/10/12 07:13:00;;;;;;;6.63;1.73;;;;;;;11.82;100.00;101443.13;7401457;19;20392;-69
2023/10/12 07:15:40;;;;;;;8.10;1.27;;;;;;;11.86;100.00;101440.09;7398050;19;19926;-69
2023/10/12 07:18:15;;;;;;;7.00;1.45;;;;;;;11.90;100.00;101446.84;7398890;19;19948;-69
2023/10/12 07:20:46;;;;;;;5.22;1.42;;;;;;;11.92;100.00;101447.50;7393743;19;20345;-68
2023/10/12 07:23:20;;;;;;;9.05;1.52;;;;;;;11.96;100.00;101452.38;7400099;19;19947;-68
2023/10/12 07:26:00;;;;;;;3.92;1.40;;;;;;;12.01;99.75;101455.41;7400140;19;19947;-68
2023/10/12 07:28:32;;;;;;;3.97;0.95;;;;;;;12.04;99.69;101451.50;7401285;19;19922;-69
2023/10/12 07:33:59;;;;;;;8.80;1.58;;;;;;;12.11;99.28;101472.28;7396099;19;19930;-69
2023/10/12 07:36:52;;;;;;;7.55;2.30;;;;;;;12.16;99.02;101483.41;7399518;19;19927;-69
2023/10/12 07:39:26;;;;;;;7.43;1.60;;;;;;;12.24;98.37;101487.94;7400677;19;20349;-69
2023/10/12 07:42:00;;;;;;;7.82;1.48;;;;;;;12.31;98.29;101490.78;7396545;19;19926;-69
2023/10/12 07:44:37;;;;;;;7.22;1.63;;;;;;;12.37;97.56;101498.22;7400035;19;20412;-69
2023/10/12 07:47:14;;;;;;;8.05;1.77;;;;;;;12.42;96.93;101493.97;7399871;19;19922;-69
2023/10/12 07:49:48;;;;;;;12.77;2.20;;;;;;;12.46;96.33;101489.91;7396681;19;20034;-68
2023/10/12 07:52:38;;;;;;;8.98;1.88;;;;;;;12.51;95.85;101490.19;7399812;19;19933;-69
2023/10/12 07:55:12;;;;;;;7.28;1.67;;;;;;;12.57;96.17;101489.50;7394834;19;19937;-69
2023/10/12 07:57:41;;;;;;;4.95;1.33;;;;;;;12.64;95.78;101501.31;7400654;19;20347;-68
2023/10/12 08:03:17;;;;;;;7.97;2.65;;;;;;;12.82;95.08;101501.06;7388820;19;19989;-69
2023/10/12 08:05:56;;;;;;;8.63;2.22;;;;;;;12.89;92.16;101493.09;7398514;19;20265;-69
2023/10/12 08:08:37;;;;;;;4.38;1.75;;;;;;;12.94;92.88;101496.97;7400150;19;19926;-69
2023/10/12 08:13:54;;;;;;;7.45;1.40;;;;;;;13.06;91.41;101497.41;7400351;19;20341;-69
2023/10/12 08:16:28;;;;;;;6.78;1.17;;;;;;;13.06;90.60;101497.41;7399229;19;20357;-68
2023/10/12 08:21:58;;;;;;;9.82;1.70;;;;;;;13.09;90.44;101497.03;7396349;19;19926;-69
2023/10/12 08:24:35;;;;;;;4.88;1.20;;;;;;;13.10;89.81;101498.72;7400078;19;19929;-68
2023/10/12 08:27:06;;;;;;;7.68;1.40;;;;;;;13.10;89.87;101499.59;7400491;19;20336;-69
2023/10/12 08:32:27;;;;;;;7.05;1.30;;;;;;;13.14;90.60;101508.19;7393099;19;19922;-69
2023/10/12 08:38:09;;;;;;;6.47;1.08;;;;;;;13.24;91.44;101525.06;7397030;19;19925;-69
2023/10/12 08:40:40;;;;;;;1.75;0.90;;;;;;;13.27;90.40;101518.44;7392378;19;19918;-68
2023/10/12 08:43:06;;;;;;;6.82;1.00;;;;;;;13.31;90.77;101514.34;7397450;19;19957;-69
2023/10/12 08:45:36;;;;;;;6.40;1.20;;;;;;;13.36;90.21;101517.38;7397580;19;19926;-69
2023/10/12 08:48:03;;;;;;;5.93;0.80;;;;;;;13.40;89.36;101529.50;7396252;19;19947;-69
2023/10/12 08:53:18;;;;;;;5.15;1.00;;;;;;;13.52;89.36;101522.66;7398871;19;19950;-69
2023/10/12 08:55:51;;;;;;;6.20;1.33;;;;;;;13.59;89.01;101523.66;7399599;19;19918;-69
2023/10/12 08:58:39;;;;;;;8.20;2.33;;;;;;;13.69;88.76;101513.38;7397693;19;19947;-69
2023/10/12 09:01:10;;;;;;;8.38;1.05;;;;;;;13.79;89.08;101518.56;7391524;19;19977;-69
2023/10/12 09:03:49;;;;;;;6.65;0.93;;;;;;;13.90;89.38;101526.25;7395058;19;19911;-69
2023/10/12 09:06:29;;;;;;;8.80;1.50;;;;;;;13.98;87.98;101532.44;7398359;19;19926;-69
2023/10/12 09:09:00;;;;;;;4.65;1.23;;;;;;;14.08;86.59;101518.63;7398672;19;19922;-70
2023/10/12 09:11:33;;;;;;;4.05;0.98;;;;;;;14.16;86.29;101520.41;7397220;19;20353;-68
2023/10/12 09:14:11;;;;;;;6.40;1.63;;;;;;;14.19;84.71;101520.91;7398587;19;20317;-69
2023/10/12 09:16:43;;;;;;;5.90;1.45;;;;;;;14.26;84.95;101521.00;7398514;19;19918;-69
2023/10/12 09:19:23;;;;;;;7.43;1.50;;;;;;;14.28;81.74;101521.66;7397051;19;19921;-70
2023/10/12 09:22:00;;;;;;;5.40;0.90;;;;;;;14.27;82.87;101518.13;7396510;19;19932;-69
2023/10/12 09:24:34;;;;;;;6.10;1.33;;;;;;;14.26;80.75;101516.41;7395559;19;20279;-69
2023/10/12 09:27:26;;;;;;;6.82;1.30;;;;;;;14.29;81.56;101517.91;7397852;19;19926;-68
2023/10/12 09:30:01;;;;;;;7.03;1.70;;;;;;;14.30;80.73;101525.88;7392420;19;19944;-68
2023/10/12 09:32:33;;;;;;;6.35;1.10;;;;;;;14.33;81.00;101533.63;7391366;19;19922;-68
2023/10/12 09:35:11;;;;;;;4.78;1.00;;;;;;;14.35;81.30;101531.59;7396729;19;19939;-69
2023/10/12 09:37:51;;;;;;;12.60;1.45;;;;;;;14.37;80.36;101529.53;7395833;19;19933;-68
2023/10/12 09:40:34;;;;;;;7.82;1.40;;;;;;;14.42;80.47;101527.13;7394630;19;20368;-68
2023/10/12 09:43:12;;;;;;;8.35;1.23;;;;;;;14.54;80.06;101541.03;7397643;19;19923;-68
2023/10/12 09:45:45;;;;;;;4.05;1.42;;;;;;;14.61;78.62;101542.00;7395092;19;19927;-68
2023/10/12 09:48:24;;;;;;;9.27;1.30;;;;;;;14.70;78.69;101542.75;7393770;19;19949;-68
2023/10/12 09:50:54;;;;;;;6.78;1.40;;;;;;;14.78;79.22;101537.22;7396024;19;20010;-68
2023/10/12 09:53:28;;;;;;;6.65;1.48;;;;;;;14.87;80.97;101538.81;7397719;19;19931;-68
2023/10/12 09:56:11;;;;;;;5.85;1.08;;;;;;;14.89;79.34;101540.28;7396436;19;19930;-68
2023/10/12 09:58:51;;;;;;;4.22;0.80;;;;;;;14.91;78.13;101546.38;7396683;19;19922;-68
2023/10/12 10:01:25;;;;;;;3.17;0.70;;;;;;;14.94;75.39;101553.28;7394525;19;19978;-68
2023/10/12 10:04:15;;;;;;;8.10;1.15;;;;;;;14.94;75.26;101550.56;7388554;19;19930;-68
2023/10/12 10:06:51;;;;;;;9.68;1.52;;;;;;;14.87;73.92;101546.94;7393097;19;19918;-69
2023/10/12 10:09:38;;;;;;;6.20;0.80;;;;;;;14.90;74.36;101551.97;7375457;19;19974;-70
2023/10/12 10:12:08;;;;;;;4.65;0.90;;;;;;;14.88;74.00;101549.47;7393099;19;19935;-70
2023/10/12 10:14:44;;;;;;;3.95;0.73;;;;;;;15.01;71.77;101545.25;7394677;19;19918;-70
2023/10/12 10:17:14;;;;;;;6.32;1.05;;;;;;;15.12;72.66;101552.88;7390550;19;19939;-68
2023/10/12 10:19:51;;;;;;;6.97;1.40;;;;;;;15.28;71.43;101547.22;7391525;19;19922;-69
2023/10/12 10:22:22;;;;;;;8.68;1.48;;;;;;;15.49;69.42;101551.88;7388623;19;19929;-69
2023/10/12 10:24:55;;;;;;;11.55;1.35;;;;;;;15.63;69.56;101548.28;7393651;19;20577;-68
2023/10/12 10:27:34;;;;;;;6.50;0.80;;;;;;;15.71;70.96;101551.72;7394581;19;19923;-68
2023/10/12 10:30:25;;;;;;;8.52;0.93;;;;;;;15.88;67.28;101549.56;7385639;19;19929;-68
2023/10/12 10:33:12;;;;;;;7.72;2.03;;;;;;;16.11;66.59;101552.06;7385037;19;19922;-68
2023/10/12 10:35:59;;;;;;;4.05;0.90;;;;;;;16.28;64.58;101554.31;7388858;19;19930;-69
2023/10/12 10:38:32;;;;;;;3.03;0.90;;;;;;;16.45;67.90;101556.72;7390142;19;19923;-69
2023/10/12 10:41:08;;;;;;;5.35;0.90;;;;;;;16.37;68.88;101551.44;7391306;19;19930;-69
2023/10/12 10:43:39;;;;;;;5.28;0.90;;;;;;;16.42;67.69;101554.41;7388149;19;19933;-69
2023/10/12 10:46:13;;;;;;;5.03;0.80;;;;;;;16.60;67.38;101552.91;7381475;19;19919;-69
2023/10/12 10:48:49;;;;;;;4.68;0.80;;;;;;;16.74;65.50;101559.22;7398768;19;19914;-69
2023/10/12 10:51:27;;;;;;;6.35;1.13;;;;;;;16.69;63.52;101559.03;7390940;19;20389;-70
2023/10/12 10:53:56;;;;;;;6.55;2.22;;;;;;;16.65;62.58;101560.47;7397637;19;20509;-69
2023/10/12 10:56:35;;;;;;;8.95;1.23;;;;;;;16.71;62.88;101565.09;7379878;19;20326;-69
2023/10/12 10:59:05;;;;;;;7.70;0.93;;;;;;;16.82;63.77;101561.81;7391892;19;20610;-69
2023/10/12 11:01:36;;;;;;;4.72;1.48;;;;;;;17.02;63.09;101556.47;7392679;19;19918;-70
2023/10/12 11:04:09;;;;;;;5.70;1.00;;;;;;;17.07;65.90;101553.97;7397379;19;19930;-71
2023/10/12 11:06:39;;;;;;;3.55;0.70;;;;;;;17.13;66.22;101559.44;7397671;19;20002;-71
2023/10/12 11:09:13;;;;;;;6.43;1.05;;;;;;;17.08;62.03;101559.22;7395725;19;19924;-70
2023/10/12 11:11:45;;;;;;;5.03;0.82;;;;;;;16.87;61.85;101559.31;7397093;19;20330;-70
2023/10/12 11:14:16;;;;;;;5.15;1.38;;;;;;;16.69;62.23;101559.03;7397268;19;19922;-71
2023/10/12 11:16:48;;;;;;;6.43;1.20;;;;;;;16.52;62.04;101557.63;7391705;19;19923;-71
2023/10/12 11:19:19;;;;;;;5.97;1.00;;;;;;;16.38;62.72;101556.69;7396250;19;20356;-71
2023/10/12 11:21:51;;;;;;;6.10;1.27;;;;;;;16.29;62.66;101550.56;7396257;19;19961;-72
2023/10/12 11:24:22;;;;;;;5.05;1.08;;;;;;;16.24;63.11;101549.47;7392944;19;20036;-72
2023/10/12 11:26:51;;;;;;;5.68;1.00;;;;;;;16.15;62.43;101547.91;7386723;19;20001;-70
2023/10/12 11:29:20;;;;;;;7.20;0.93;;;;;;;16.11;62.51;101555.63;7391290;19;19922;-70
2023/10/12 11:32:16;;;;;;;4.32;0.80;;;;;;;16.10;61.67;101540.34;7391105;19;19919;-70
2023/10/12 11:34:52;;;;;;;4.90;1.05;;;;;;;16.12;62.24;101527.41;7390899;19;20260;-71
2023/10/12 11:37:23;;;;;;;5.28;1.23;;;;;;;16.08;61.57;101542.44;7393971;19;19919;-70
2023/10/12 11:39:53;;;;;;;5.65;1.13;;;;;;;16.06;62.23;101546.38;7395884;19;19918;-70
2023/10/12 11:42:29;;;;;;;9.07;1.50;;;;;;;16.09;62.04;101552.25;7385503;19;19922;-70
2023/10/12 11:44:58;;;;;;;6.53;1.00;;;;;;;16.15;62.90;101558.78;7388945;19;20038;-70
2023/10/12 11:47:40;;;;;;;8.10;1.40;;;;;;;16.19;60.28;101549.19;7381275;19;20896;-70
2023/10/12 11:50:13;;;;;;;4.53;1.08;;;;;;;16.21;60.96;101542.56;7393016;19;19926;-70
2023/10/12 11:52:49;;;;;;;5.57;1.73;;;;;;;16.19;61.50;101550.03;7396026;19;19923;-70
2023/10/12 11:55:24;;;;;;;7.93;1.35;;;;;;;16.25;61.88;101532.97;7390756;19;19927;-70
2023/10/12 11:57:54;;;;;;;7.90;1.52;;;;;;;16.34;64.38;101537.22;7394866;19;19919;-70
2023/10/12 12:00:26;;;;;;;6.97;1.10;;;;;;;16.41;61.75;101531.81;7392513;19;19926;-70
2023/10/12 12:02:59;;;;;;;7.30;1.00;;;;;;;16.43;61.21;101524.31;7389831;19;19922;-70
2023/10/12 12:05:29;;;;;;;3.08;0.75;;;;;;;16.41;61.21;101529.09;7385895;19;19923;-71
2023/10/12 12:07:59;;;;;;;6.03;0.73;;;;;;;16.44;61.69;101530.59;7392518;19;19926;-70
2023/10/12 12:10:38;;;;;;;3.53;0.80;;;;;;;16.52;61.39;101525.81;7393240;19;19926;-70
2023/10/12 12:13:08;;;;;;;7.82;1.00;;;;;;;16.55;61.29;101522.69;7251905;19;2772663;-70
2023/10/12 12:15:40;;;;;;;6.75;0.88;;;;;;;16.60;63.56;101528.41;7396540;19;19922;-70
2023/10/12 12:18:14;;;;;;;4.10;0.82;;;;;;;16.57;61.37;101526.06;7395220;19;19923;-70
2023/10/12 12:20:44;;;;;;;5.85;0.80;;;;;;;16.48;60.62;101531.88;7395191;19;19952;-70
2023/10/12 12:23:13;;;;;;;3.58;0.68;;;;;;;16.37;63.62;101537.84;7388040;19;19978;-70
2023/10/12 12:25:42;;;;;;;3.85;0.65;;;;;;;16.29;65.78;101528.81;7394745;19;20356;-70
2023/10/12 12:28:14;;;;;;;5.63;0.98;;;;;;;16.23;67.26;101521.44;7397090;19;19933;-70
2023/10/12 12:30:46;;;;;;;;;;;;;;;15.98;61.86;101508.47;7396327;19;19926;-70
2023/10/12 12:33:18;;;;;;;8.88;1.17;;;;;;;16.05;66.17;101509.38;7395215;19;19919;-70
2023/10/12 12:35:48;;;;;;;5.95;0.85;;;;;;;16.02;66.77;101526.06;7394093;19;19960;-70
2023/10/12 12:38:43;;;;;;;6.38;0.93;;;;;;;15.99;68.70;101524.59;7396507;19;19957;-69